createdAt,value
2023-05-21T00:00:20.734Z,18.00
2023-05-21T00:02:48.795Z,18.00
2023-05-21T00:05:18.871Z,18.00
2023-05-21T00:07:47.183Z,18.00
2023-05-21T00:10:15.529Z,17.90
2023-05-21T00:12:43.571Z,17.90
2023-05-21T00:15:12.171Z,17.90
2023-05-21T00:17:40.357Z,17.90
2023-05-21T00:20:10.043Z,17.90
2023-05-21T00:22:40.334Z,17.90
2023-05-21T00:25:08.949Z,17.80
2023-05-21T00:27:37.009Z,17.80
2023-05-21T00:30:05.606Z,17.80
2023-05-21T00:32:33.622Z,17.80
2023-05-21T00:35:01.615Z,17.70
2023-05-21T00:37:34.460Z,17.70
2023-05-21T00:40:07.080Z,17.70
2023-05-21T00:42:39.280Z,17.70
2023-05-21T00:45:08.760Z,17.70
2023-05-21T00:47:37.248Z,17.60
2023-05-21T00:50:07.029Z,17.60
2023-05-21T00:52:41.570Z,17.60
2023-05-21T00:55:11.772Z,17.60
2023-05-21T00:57:41.331Z,17.60
2023-05-21T01:00:11.054Z,17.60
2023-05-21T01:02:39.207Z,17.60
2023-05-21T01:05:08.030Z,17.60
2023-05-21T01:07:37.035Z,17.60
2023-05-21T01:10:06.384Z,17.60
2023-05-21T01:12:38.993Z,17.60
2023-05-21T01:15:08.608Z,17.60
2023-05-21T01:17:36.714Z,17.60
2023-05-21T01:20:10.437Z,17.50
2023-05-21T01:22:43.528Z,17.60
2023-05-21T01:25:13.229Z,17.50
2023-05-21T01:27:41.734Z,17.50
2023-05-21T01:30:10.717Z,17.50
2023-05-21T01:32:46.225Z,17.50
2023-05-21T01:35:18.593Z,17.50
2023-05-21T01:37:52.552Z,17.50
2023-05-21T01:40:26.904Z,17.50
2023-05-21T01:42:55.123Z,17.50
2023-05-21T01:45:24.965Z,17.40
2023-05-21T01:47:56.669Z,17.50
2023-05-21T01:50:25.786Z,17.40
2023-05-21T01:52:56.840Z,17.40
2023-05-21T01:55:26.190Z,17.40
2023-05-21T01:57:54.898Z,17.40
2023-05-21T02:00:23.459Z,17.30
2023-05-21T02:02:51.983Z,17.30
2023-05-21T02:05:20.071Z,17.30
2023-05-21T02:07:48.437Z,17.30
2023-05-21T02:10:16.503Z,17.20
2023-05-21T02:12:46.040Z,17.20
2023-05-21T02:15:17.821Z,17.20
2023-05-21T02:17:46.363Z,17.20
2023-05-21T02:20:14.781Z,17.20
2023-05-21T02:22:44.569Z,17.20
2023-05-21T02:25:13.866Z,17.20
2023-05-21T02:27:42.942Z,17.20
2023-05-21T02:30:13.634Z,17.20
2023-05-21T02:32:42.856Z,17.20
2023-05-21T02:35:12.712Z,17.10
2023-05-21T02:37:41.398Z,17.10
2023-05-21T02:40:10.791Z,17.10
2023-05-21T02:42:41.524Z,17.10
2023-05-21T02:45:11.282Z,17.00
2023-05-21T02:47:40.893Z,17.00
2023-05-21T02:50:10.316Z,17.00
2023-05-21T02:52:38.355Z,17.00
2023-05-21T02:55:07.295Z,17.00
2023-05-21T02:57:35.301Z,16.90
2023-05-21T03:00:03.771Z,16.90
2023-05-21T03:02:32.289Z,16.90
2023-05-21T03:05:01.736Z,16.90
2023-05-21T03:07:29.747Z,16.90
2023-05-21T03:09:57.729Z,16.90
2023-05-21T03:12:25.754Z,16.90
2023-05-21T03:14:54.433Z,16.90
2023-05-21T03:17:22.442Z,16.90
2023-05-21T03:19:50.427Z,16.90
2023-05-21T03:22:20.291Z,16.90
2023-05-21T03:24:48.625Z,16.90
2023-05-21T03:27:16.792Z,16.90
2023-05-21T03:29:45.961Z,16.90
2023-05-21T03:32:14.966Z,16.90
2023-05-21T03:34:43.145Z,17.00
2023-05-21T03:37:11.137Z,17.00
2023-05-21T03:39:40.468Z,17.10
2023-05-21T03:42:08.498Z,17.10
2023-05-21T03:44:36.755Z,17.10
2023-05-21T03:47:04.782Z,17.10
2023-05-21T03:49:32.798Z,17.10
2023-05-21T03:52:00.816Z,17.10
2023-05-21T03:54:28.811Z,17.20
2023-05-21T03:56:58.166Z,17.20
2023-05-21T03:59:26.370Z,17.20
2023-05-21T04:01:54.365Z,17.30
2023-05-21T04:04:22.410Z,17.40
2023-05-21T04:06:51.507Z,17.50
2023-05-21T04:09:19.506Z,17.50
2023-05-21T04:11:47.912Z,17.50
2023-05-21T04:14:17.357Z,17.50
2023-05-21T04:16:45.355Z,17.50
2023-05-21T04:19:13.412Z,17.50
2023-05-21T04:21:41.972Z,17.50
2023-05-21T04:24:10.332Z,17.50
2023-05-21T04:26:38.297Z,17.50
2023-05-21T04:29:06.365Z,17.50
2023-05-21T04:31:35.817Z,17.50
2023-05-21T04:34:04.175Z,17.60
2023-05-21T04:36:33.796Z,17.60
2023-05-21T04:39:01.806Z,17.70
2023-05-21T04:41:29.807Z,17.70
2023-05-21T04:43:58.718Z,17.70
2023-05-21T04:46:26.806Z,17.70
2023-05-21T04:48:56.361Z,17.70
2023-05-21T04:51:24.745Z,17.80
2023-05-21T04:53:53.935Z,17.80
2023-05-21T04:56:22.856Z,17.90
2023-05-21T04:58:50.843Z,17.90
2023-05-21T05:01:19.063Z,18.00
2023-05-21T05:03:47.313Z,18.10
2023-05-21T05:06:16.807Z,18.10
2023-05-21T05:08:46.119Z,18.20
2023-05-21T05:11:14.274Z,18.30
2023-05-21T05:13:42.742Z,18.30
2023-05-21T05:16:11.379Z,18.40
2023-05-21T05:18:39.404Z,18.40
2023-05-21T05:21:07.449Z,18.50
2023-05-21T05:23:36.844Z,18.50
2023-05-21T05:26:04.819Z,18.60
2023-05-21T05:28:32.781Z,18.60
2023-05-21T05:31:00.814Z,18.70
2023-05-21T05:33:28.871Z,18.80
2023-05-21T05:35:56.899Z,18.80
2023-05-21T05:38:26.066Z,18.80
2023-05-21T05:40:55.568Z,18.90
2023-05-21T05:43:23.568Z,19.00
2023-05-21T05:45:51.587Z,19.00
2023-05-21T05:48:19.638Z,19.00
2023-05-21T05:50:47.982Z,19.10
2023-05-21T05:53:16.077Z,19.20
2023-05-21T05:55:44.152Z,19.30
2023-05-21T05:58:13.549Z,19.30
2023-05-21T06:00:41.566Z,19.40
2023-05-21T06:03:09.646Z,19.50
2023-05-21T06:05:38.037Z,19.60
2023-05-21T06:08:06.842Z,19.60
2023-05-21T06:10:34.834Z,19.70
2023-05-21T06:13:02.834Z,19.80
2023-05-21T06:15:32.218Z,19.90
2023-05-21T06:18:00.300Z,20.00
2023-05-21T06:20:29.970Z,20.10
2023-05-21T06:22:57.991Z,20.20
2023-05-21T06:25:26.945Z,20.30
2023-05-21T06:27:54.957Z,20.50
2023-05-21T06:30:22.945Z,20.60
2023-05-21T06:32:52.374Z,20.70
2023-05-21T06:35:20.495Z,20.80
2023-05-21T06:37:48.717Z,20.90
2023-05-21T06:40:16.964Z,20.90
2023-05-21T06:42:44.946Z,21.00
2023-05-21T06:45:13.535Z,21.00
2023-05-21T06:47:41.985Z,21.10
2023-05-21T06:50:11.871Z,21.20
2023-05-21T06:52:39.880Z,21.30
2023-05-21T06:55:09.770Z,21.40
2023-05-21T06:57:39.004Z,21.50
2023-05-21T07:00:09.267Z,21.50
2023-05-21T07:02:37.480Z,21.50
2023-05-21T07:05:05.857Z,21.60
2023-05-21T07:07:35.792Z,21.60
2023-05-21T07:10:04.069Z,21.50
2023-05-21T07:12:32.121Z,21.50
2023-05-21T07:15:00.178Z,21.50
2023-05-21T07:17:28.233Z,21.50
2023-05-21T07:19:56.538Z,21.60
2023-05-21T07:22:26.634Z,21.80
2023-05-21T07:24:57.421Z,21.80
2023-05-21T07:27:26.261Z,21.90
2023-05-21T07:29:54.507Z,22.00
2023-05-21T07:32:22.587Z,22.10
2023-05-21T07:34:52.143Z,22.20
2023-05-21T07:37:21.668Z,22.20
2023-05-21T07:39:49.668Z,22.30
2023-05-21T07:42:19.034Z,22.30
2023-05-21T07:44:47.052Z,22.30
2023-05-21T07:47:15.338Z,22.30
2023-05-21T07:49:43.414Z,22.40
2023-05-21T07:52:11.445Z,22.50
2023-05-21T07:54:39.400Z,22.60
2023-05-21T07:57:07.425Z,22.60
2023-05-21T07:59:36.797Z,22.60
2023-05-21T08:02:04.950Z,22.60
2023-05-21T08:04:33.011Z,22.70
2023-05-21T08:07:01.022Z,22.80
2023-05-21T08:09:29.424Z,22.90
2023-05-21T08:11:57.401Z,22.90
2023-05-21T08:14:25.423Z,23.00
2023-05-21T08:16:54.785Z,23.00
2023-05-21T08:19:22.833Z,23.00
2023-05-21T08:21:52.881Z,23.00
2023-05-21T08:24:21.245Z,23.00
2023-05-21T08:26:50.650Z,23.00
2023-05-21T08:29:18.725Z,23.00
2023-05-21T08:31:46.804Z,23.00
2023-05-21T08:34:16.420Z,23.10
2023-05-21T08:36:46.122Z,23.10
2023-05-21T08:39:14.090Z,23.10
2023-05-21T08:41:50.612Z,23.10
2023-05-21T08:44:22.598Z,23.20
2023-05-21T08:46:51.871Z,23.30
2023-05-21T08:49:27.788Z,23.40
2023-05-21T08:51:56.797Z,23.50
2023-05-21T08:54:25.355Z,23.60
2023-05-21T08:56:54.505Z,23.60
2023-05-21T08:59:23.152Z,23.70
2023-05-21T09:01:52.365Z,23.80
2023-05-21T09:04:22.457Z,23.90
2023-05-21T09:06:51.198Z,24.00
2023-05-21T09:09:26.113Z,24.00
2023-05-21T09:11:56.202Z,24.00
2023-05-21T09:14:25.194Z,24.00
2023-05-21T09:16:53.259Z,24.00
2023-05-21T09:19:23.586Z,24.10
2023-05-21T09:21:52.993Z,24.10
2023-05-21T09:24:23.861Z,24.20
2023-05-21T09:26:52.480Z,24.20
2023-05-21T09:29:20.673Z,24.20
2023-05-21T09:31:48.776Z,24.30
2023-05-21T09:34:17.042Z,24.50
2023-05-21T09:36:47.165Z,24.50
2023-05-21T09:39:28.895Z,24.70
2023-05-21T09:41:58.213Z,24.70
2023-05-21T09:44:26.302Z,24.70
2023-05-21T09:46:59.168Z,24.80
2023-05-21T09:49:28.187Z,24.90
2023-05-21T09:51:58.445Z,24.90
2023-05-21T09:54:27.082Z,24.90
2023-05-21T09:56:55.219Z,24.80
2023-05-21T09:59:23.269Z,24.80
2023-05-21T10:01:52.749Z,24.90
2023-05-21T10:04:22.403Z,25.00
2023-05-21T10:06:51.744Z,25.00
2023-05-21T10:09:22.423Z,25.00
2023-05-21T10:11:53.321Z,25.10
2023-05-21T10:14:22.611Z,25.20
2023-05-21T10:16:53.726Z,25.20
2023-05-21T10:19:23.828Z,25.30
2023-05-21T10:21:57.062Z,25.20
2023-05-21T10:24:26.851Z,25.30
2023-05-21T10:26:55.147Z,25.40
2023-05-21T10:29:24.478Z,25.40
2023-05-21T10:31:54.013Z,25.40
2023-05-21T10:34:24.445Z,25.40
2023-05-21T10:36:53.675Z,25.40
2023-05-21T10:39:24.021Z,25.40
2023-05-21T10:42:07.624Z,25.50
2023-05-21T10:44:51.015Z,25.60
2023-05-21T10:47:41.627Z,25.70
2023-05-21T10:50:36.315Z,25.80
2023-05-21T10:53:15.038Z,25.90
2023-05-21T10:55:58.403Z,25.90
2023-05-21T10:59:07.764Z,25.90
2023-05-21T11:01:38.239Z,26.00
2023-05-21T11:04:06.905Z,26.10
2023-05-21T11:06:35.269Z,26.30
2023-05-21T11:09:12.581Z,26.50
2023-05-21T11:11:46.188Z,26.60
2023-05-21T11:14:39.975Z,26.60
2023-05-21T11:17:17.052Z,26.80
2023-05-21T11:19:47.429Z,26.80
2023-05-21T11:22:24.333Z,26.90
2023-05-21T11:24:53.156Z,26.90
2023-05-21T11:27:33.835Z,26.90
2023-05-21T11:30:05.712Z,27.00
2023-05-21T11:32:33.820Z,26.90
2023-05-21T11:35:03.020Z,27.00
2023-05-21T11:37:34.380Z,27.10
2023-05-21T11:40:19.587Z,27.20
2023-05-21T11:42:52.033Z,27.30
2023-05-21T11:45:23.056Z,27.30
2023-05-21T11:47:52.012Z,27.40
2023-05-21T11:50:20.824Z,27.50
2023-05-21T11:52:49.745Z,27.60
2023-05-21T11:55:23.278Z,27.70
2023-05-21T11:57:54.655Z,27.80
2023-05-21T12:00:24.390Z,27.90
2023-05-21T12:02:55.552Z,27.80
2023-05-21T12:05:25.232Z,27.70
2023-05-21T12:07:54.701Z,27.70
2023-05-21T12:10:23.807Z,27.60
2023-05-21T12:12:55.684Z,27.60
2023-05-21T12:15:27.452Z,27.60
2023-05-21T12:17:57.087Z,27.60
2023-05-21T12:20:27.941Z,27.60
2023-05-21T12:22:57.874Z,27.70
2023-05-21T12:25:25.955Z,27.80
2023-05-21T12:27:58.759Z,27.90
2023-05-21T12:30:29.293Z,28.10
2023-05-21T12:33:02.200Z,28.20
2023-05-21T12:35:32.545Z,28.30
2023-05-21T12:38:02.382Z,28.30
2023-05-21T12:40:38.401Z,28.30
2023-05-21T12:43:07.513Z,28.40
2023-05-21T12:45:39.234Z,28.50
2023-05-21T12:48:07.707Z,28.50
2023-05-21T12:50:36.456Z,28.40
2023-05-21T12:53:04.764Z,28.50
2023-05-21T12:55:32.982Z,28.50
2023-05-21T12:58:08.003Z,28.60
2023-05-21T13:00:38.475Z,28.60
2023-05-21T13:03:07.401Z,28.60
2023-05-21T13:05:35.925Z,28.70
2023-05-21T13:08:03.988Z,28.60
2023-05-21T13:10:32.021Z,28.50
2023-05-21T13:13:00.241Z,28.40
2023-05-21T13:15:28.782Z,28.30
2023-05-21T13:18:00.942Z,28.30
2023-05-21T13:20:29.474Z,28.30
2023-05-21T13:22:57.501Z,28.40
2023-05-21T13:25:28.965Z,28.50
2023-05-21T13:27:57.935Z,28.50
2023-05-21T13:30:26.095Z,28.60
2023-05-21T13:32:54.238Z,28.60
2023-05-21T13:35:23.814Z,28.70
2023-05-21T13:37:51.848Z,28.80
2023-05-21T13:40:19.897Z,28.80
2023-05-21T13:42:49.427Z,28.80
2023-05-21T13:45:20.862Z,28.80
2023-05-21T13:47:49.437Z,28.70
2023-05-21T13:50:17.711Z,28.70
2023-05-21T13:52:47.281Z,28.60
2023-05-21T13:55:15.926Z,28.50
2023-05-21T13:57:44.266Z,28.50
2023-05-21T14:00:15.308Z,28.50
2023-05-21T14:02:44.373Z,28.60
2023-05-21T14:05:12.793Z,28.80
2023-05-21T14:07:42.169Z,28.80
2023-05-21T14:10:12.710Z,28.90
2023-05-21T14:12:41.021Z,29.00
2023-05-21T14:15:10.019Z,29.10
2023-05-21T14:17:40.252Z,29.20
2023-05-21T14:20:09.965Z,29.30
2023-05-21T14:22:38.948Z,29.50
2023-05-21T14:25:07.973Z,29.60
2023-05-21T14:27:38.694Z,29.60
2023-05-21T14:30:07.682Z,29.50
2023-05-21T14:32:35.764Z,29.30
2023-05-21T14:35:04.930Z,29.20
2023-05-21T14:37:33.071Z,29.10
2023-05-21T14:40:01.149Z,29.20
2023-05-21T14:42:29.168Z,29.30
2023-05-21T14:44:58.926Z,29.40
2023-05-21T14:47:28.142Z,29.40
2023-05-21T14:49:56.144Z,29.40
2023-05-21T14:52:24.148Z,29.30
2023-05-21T14:54:52.180Z,29.20
2023-05-21T14:57:20.826Z,29.30
2023-05-21T14:59:48.800Z,29.40
2023-05-21T15:02:18.277Z,29.40
2023-05-21T15:04:46.322Z,29.40
2023-05-21T15:07:14.391Z,29.40
2023-05-21T15:09:42.375Z,29.40
2023-05-21T15:12:10.358Z,29.50
2023-05-21T15:14:38.752Z,29.60
2023-05-21T15:17:06.849Z,29.70
2023-05-21T15:19:36.252Z,29.70
2023-05-21T15:22:04.314Z,29.80
2023-05-21T15:24:32.309Z,30.00
2023-05-21T15:27:00.348Z,30.10
2023-05-21T15:29:28.346Z,30.20
2023-05-21T15:31:56.537Z,30.20
2023-05-21T15:34:24.612Z,30.20
2023-05-21T15:36:54.125Z,30.20
2023-05-21T15:39:22.113Z,30.20
2023-05-21T15:41:50.126Z,30.10
2023-05-21T15:44:18.112Z,30.10
2023-05-21T15:46:46.218Z,30.00
2023-05-21T15:49:14.319Z,29.80
2023-05-21T15:51:42.337Z,29.70
2023-05-21T15:54:11.693Z,29.60
2023-05-21T15:56:39.705Z,29.50
2023-05-21T15:59:07.884Z,29.50
2023-05-21T16:01:35.998Z,29.50
2023-05-21T16:04:04.199Z,29.60
2023-05-21T16:06:32.305Z,29.70
2023-05-21T16:09:00.618Z,29.70
2023-05-21T16:11:30.207Z,29.60
2023-05-21T16:13:58.311Z,29.60
2023-05-21T16:16:26.362Z,29.60
2023-05-21T16:18:55.256Z,29.60
2023-05-21T16:21:23.233Z,29.50
2023-05-21T16:23:51.288Z,29.40
2023-05-21T16:26:19.367Z,29.30
2023-05-21T16:28:48.760Z,29.30
2023-05-21T16:31:16.867Z,29.30
2023-05-21T16:33:44.852Z,29.30
2023-05-21T16:36:13.119Z,29.30
2023-05-21T16:38:41.165Z,29.30
2023-05-21T16:41:09.185Z,29.30
2023-05-21T16:43:37.239Z,29.20
2023-05-21T16:46:06.751Z,29.20
2023-05-21T16:48:36.115Z,29.20
2023-05-21T16:51:06.097Z,29.10
2023-05-21T16:53:34.121Z,29.00
2023-05-21T16:56:02.143Z,28.90
2023-05-21T16:58:30.142Z,28.70
2023-05-21T17:00:58.234Z,28.60
2023-05-21T17:03:28.819Z,28.60
2023-05-21T17:05:56.885Z,28.50
2023-05-21T17:08:24.911Z,28.40
2023-05-21T17:10:52.949Z,28.30
2023-05-21T17:13:22.583Z,28.30
2023-05-21T17:15:51.873Z,28.20
2023-05-21T17:18:19.974Z,28.20
2023-05-21T17:20:49.358Z,28.10
2023-05-21T17:23:17.529Z,28.00
2023-05-21T17:25:45.625Z,27.90
2023-05-21T17:28:13.909Z,27.90
2023-05-21T17:30:41.901Z,27.80
2023-05-21T17:33:10.435Z,27.70
2023-05-21T17:35:39.054Z,27.70
2023-05-21T17:38:08.715Z,27.60
2023-05-21T17:40:36.750Z,27.60
2023-05-21T17:43:07.239Z,27.50
2023-05-21T17:45:35.540Z,27.40
2023-05-21T17:48:03.994Z,27.40
2023-05-21T17:50:32.106Z,27.30
2023-05-21T17:53:00.236Z,27.30
2023-05-21T17:55:29.599Z,27.20
2023-05-21T17:57:57.845Z,27.20
2023-05-21T18:00:25.950Z,27.10
2023-05-21T18:02:54.062Z,27.00
2023-05-21T18:05:22.751Z,27.00
2023-05-21T18:07:51.145Z,26.90
2023-05-21T18:10:19.245Z,26.90
2023-05-21T18:12:48.682Z,26.80
2023-05-21T18:15:17.030Z,26.70
2023-05-21T18:17:45.481Z,26.60
2023-05-21T18:20:14.866Z,26.50
2023-05-21T18:22:42.893Z,26.50
2023-05-21T18:25:11.598Z,26.40
2023-05-21T18:27:39.644Z,26.30
2023-05-21T18:30:10.105Z,26.30
2023-05-21T18:32:39.405Z,26.20
2023-05-21T18:35:10.700Z,26.20
2023-05-21T18:37:42.144Z,26.10
2023-05-21T18:40:11.388Z,26.00
2023-05-21T18:42:39.405Z,26.00
2023-05-21T18:45:10.224Z,25.90
2023-05-21T18:47:40.190Z,25.80
2023-05-21T18:50:09.916Z,25.80
2023-05-21T18:52:37.916Z,25.70
2023-05-21T18:55:06.880Z,25.60
2023-05-21T18:57:35.624Z,25.50
2023-05-21T19:00:04.631Z,25.50
2023-05-21T19:02:34.363Z,25.40
2023-05-21T19:05:02.870Z,25.40
2023-05-21T19:07:30.910Z,25.30
2023-05-21T19:10:00.063Z,25.20
2023-05-21T19:12:29.365Z,25.10
2023-05-21T19:14:57.397Z,25.10
2023-05-21T19:17:25.597Z,25.00
2023-05-21T19:19:56.215Z,25.00
2023-05-21T19:22:25.115Z,25.00
2023-05-21T19:24:53.757Z,24.90
2023-05-21T19:27:22.488Z,24.90
2023-05-21T19:29:50.588Z,24.80
2023-05-21T19:32:20.607Z,24.80
2023-05-21T19:34:48.932Z,24.70
2023-05-21T19:37:18.449Z,24.70
2023-05-21T19:39:49.680Z,24.60
2023-05-21T19:42:18.375Z,24.50
2023-05-21T19:44:47.089Z,24.50
2023-05-21T19:47:15.230Z,24.40
2023-05-21T19:49:43.318Z,24.30
2023-05-21T19:52:12.378Z,24.30
2023-05-21T19:54:41.831Z,24.30
2023-05-21T19:57:12.278Z,24.30
2023-05-21T19:59:40.824Z,24.20
2023-05-21T20:02:13.265Z,24.20
2023-05-21T20:04:41.631Z,24.10
2023-05-21T20:07:09.751Z,24.00
2023-05-21T20:09:37.791Z,24.00
2023-05-21T20:12:08.018Z,24.00
2023-05-21T20:14:36.067Z,24.00
2023-05-21T20:17:05.889Z,23.90
2023-05-21T20:19:34.134Z,23.90
2023-05-21T20:22:02.199Z,23.80
2023-05-21T20:24:30.214Z,23.80
2023-05-21T20:26:58.295Z,23.70
2023-05-21T20:29:28.706Z,23.70
2023-05-21T20:31:57.020Z,23.60
2023-05-21T20:34:27.278Z,23.60
2023-05-21T20:36:58.019Z,23.60
2023-05-21T20:39:28.615Z,23.60
2023-05-21T20:41:58.094Z,23.60
2023-05-21T20:44:28.863Z,23.50
2023-05-21T20:46:56.852Z,23.50
2023-05-21T20:49:25.857Z,23.50
2023-05-21T20:51:53.921Z,23.40
2023-05-21T20:54:22.538Z,23.40
2023-05-21T20:56:50.742Z,23.40
2023-05-21T20:59:18.813Z,23.30
2023-05-21T21:01:48.452Z,23.30
2023-05-21T21:04:17.773Z,23.20
2023-05-21T21:06:46.519Z,23.20
2023-05-21T21:09:14.814Z,23.20
2023-05-21T21:11:42.838Z,23.20
2023-05-21T21:14:10.978Z,23.20
2023-05-21T21:16:39.105Z,23.10
2023-05-21T21:19:08.646Z,23.10
2023-05-21T21:21:36.762Z,23.10
2023-05-21T21:24:05.246Z,23.10
2023-05-21T21:26:33.251Z,23.10
2023-05-21T21:29:01.812Z,23.00
2023-05-21T21:31:31.642Z,23.00
2023-05-21T21:33:59.731Z,23.00
2023-05-21T21:36:29.441Z,23.00
2023-05-21T21:38:57.466Z,23.00
2023-05-21T21:41:25.839Z,23.00
2023-05-21T21:43:53.850Z,22.90
2023-05-21T21:46:22.216Z,22.90
2023-05-21T21:48:50.279Z,22.80
2023-05-21T21:51:18.380Z,22.80
2023-05-21T21:53:47.714Z,22.80
2023-05-21T21:56:16.352Z,22.80
2023-05-21T21:58:44.427Z,22.80
2023-05-21T22:01:12.440Z,22.80
2023-05-21T22:03:41.015Z,22.70
2023-05-21T22:06:09.542Z,22.70
2023-05-21T22:08:37.549Z,22.70
2023-05-21T22:11:07.091Z,22.70
2023-05-21T22:13:35.412Z,22.70
2023-05-21T22:16:03.624Z,22.60
2023-05-21T22:18:41.020Z,22.60
2023-05-21T22:21:10.705Z,22.60
2023-05-21T22:23:39.445Z,22.50
2023-05-21T22:26:08.854Z,22.50
2023-05-21T22:28:37.610Z,22.50
2023-05-21T22:31:06.267Z,22.50
2023-05-21T22:33:34.350Z,22.50
2023-05-21T22:36:02.395Z,22.50
2023-05-21T22:38:30.496Z,22.40
2023-05-21T22:40:58.572Z,22.40
2023-05-21T22:43:28.278Z,22.40
2023-05-21T22:45:56.460Z,22.40
2023-05-21T22:48:24.740Z,22.30
2023-05-21T22:50:53.339Z,22.30
2023-05-21T22:53:21.634Z,22.30
2023-05-21T22:55:49.702Z,22.30
2023-05-21T22:58:18.007Z,22.30
2023-05-21T23:00:48.272Z,22.30
2023-05-21T23:03:16.851Z,22.40
2023-05-21T23:05:45.594Z,22.30
2023-05-21T23:08:14.072Z,22.40
2023-05-21T23:10:42.074Z,22.30
2023-05-21T23:13:10.190Z,22.30
2023-05-21T23:15:39.070Z,22.30
2023-05-21T23:18:08.938Z,22.20
2023-05-21T23:20:39.538Z,22.20
2023-05-21T23:23:07.947Z,22.20
2023-05-21T23:25:36.356Z,22.20
2023-05-21T23:28:04.717Z,22.10
2023-05-21T23:30:32.711Z,22.10
2023-05-21T23:33:01.043Z,22.10
2023-05-21T23:35:30.461Z,22.10
2023-05-21T23:37:58.453Z,22.10
2023-05-21T23:40:26.464Z,22.10
2023-05-21T23:42:54.562Z,22.10
2023-05-21T23:45:22.643Z,22.10
2023-05-21T23:47:50.710Z,22.10
2023-05-21T23:50:18.834Z,22.10
2023-05-21T23:52:48.243Z,22.10
2023-05-21T23:55:16.608Z,22.10
2023-05-21T23:57:44.673Z,22.00
